sensor_id;sensor_type;location;lat;lon;timestamp;P1;durP1;ratioP1;P2;durP2;ratioP2
43429;SDS011;29028;43.234;27.896;2022-08-07T04:01:27;16.33;;;14.55;;
43429;SDS011;29028;43.234;27.896;2022-08-07T04:01:52;18.08;;;14.65;;
43429;SDS011;29028;43.234;27.896;2022-08-07T04:02:14;18.92;;;15.00;;
43429;SDS011;29028;43.234;27.896;2022-08-07T04:02:35;17.00;;;15.20;;
43429;SDS011;29028;43.234;27.896;2022-08-07T04:02:57;17.30;;;14.90;;
43429;SDS011;29028;43.234;27.896;2022-08-07T04:03:19;19.30;;;15.02;;
43429;SDS011;29028;43.234;27.896;2022-08-07T04:03:40;18.90;;;15.40;;
43429;SDS011;29028;43.234;27.896;2022-08-07T04:04:01;18.63;;;15.07;;
43429;SDS011;29028;43.234;27.896;2022-08-07T04:04:22;16.85;;;14.55;;
43429;SDS011;29028;43.234;27.896;2022-08-07T04:04:45;16.13;;;14.43;;
43429;SDS011;29028;43.234;27.896;2022-08-07T04:05:06;17.27;;;14.70;;
43429;SDS011;29028;43.234;27.896;2022-08-07T04:05:28;16.98;;;14.70;;
43429;SDS011;29028;43.234;27.896;2022-08-07T04:05:49;15.75;;;14.05;;
43429;SDS011;29028;43.234;27.896;2022-08-07T04:06:10;15.77;;;14.13;;
43429;SDS011;29028;43.234;27.896;2022-08-07T04:06:32;17.13;;;14.65;;
43429;SDS011;29028;43.234;27.896;2022-08-07T04:06:55;17.07;;;14.40;;
43429;SDS011;29028;43.234;27.896;2022-08-07T04:07:17;16.63;;;14.43;;
43429;SDS011;29028;43.234;27.896;2022-08-07T04:07:42;18.67;;;15.55;;
43429;SDS011;29028;43.234;27.896;2022-08-07T04:08:05;17.73;;;14.95;;
43429;SDS011;29028;43.234;27.896;2022-08-07T04:08:28;17.15;;;14.82;;
43429;SDS011;29028;43.234;27.896;2022-08-07T04:08:50;16.90;;;14.50;;
43429;SDS011;29028;43.234;27.896;2022-08-07T04:09:11;16.13;;;14.40;;
43429;SDS011;29028;43.234;27.896;2022-08-07T04:09:34;15.85;;;13.85;;
43429;SDS011;29028;43.234;27.896;2022-08-07T04:09:56;16.77;;;13.77;;
43429;SDS011;29028;43.234;27.896;2022-08-07T04:10:18;16.63;;;14.10;;
43429;SDS011;29028;43.234;27.896;2022-08-07T04:10:39;16.38;;;14.20;;
43429;SDS011;29028;43.234;27.896;2022-08-07T04:11:01;15.68;;;13.52;;
43429;SDS011;29028;43.234;27.896;2022-08-07T04:11:23;14.95;;;13.10;;
43429;SDS011;29028;43.234;27.896;2022-08-07T04:11:45;14.85;;;13.35;;
43429;SDS011;29028;43.234;27.896;2022-08-07T04:12:08;15.25;;;13.20;;
43429;SDS011;29028;43.234;27.896;2022-08-07T04:12:30;15.25;;;13.63;;
43429;SDS011;29028;43.234;27.896;2022-08-07T04:12:51;16.08;;;13.52;;
43429;SDS011;29028;43.234;27.896;2022-08-07T04:13:14;16.65;;;12.98;;
43429;SDS011;29028;43.234;27.896;2022-08-07T04:13:35;15.52;;;13.25;;
43429;SDS011;29028;43.234;27.896;2022-08-07T04:13:57;14.88;;;13.27;;
43429;SDS011;29028;43.234;27.896;2022-08-07T04:14:20;15.60;;;13.50;;
43429;SDS011;29028;43.234;27.896;2022-08-07T04:14:44;16.20;;;13.17;;
43429;SDS011;29028;43.234;27.896;2022-08-07T04:15:06;15.27;;;13.15;;
43429;SDS011;29028;43.234;27.896;2022-08-07T04:15:29;17.00;;;13.15;;
43429;SDS011;29028;43.234;27.896;2022-08-07T04:15:50;16.33;;;13.70;;
43429;SDS011;29028;43.234;27.896;2022-08-07T04:16:11;14.30;;;12.77;;
43429;SDS011;29028;43.234;27.896;2022-08-07T04:16:35;14.60;;;12.82;;
43429;SDS011;29028;43.234;27.896;2022-08-07T04:16:56;14.38;;;12.70;;
43429;SDS011;29028;43.234;27.896;2022-08-07T04:17:17;14.43;;;12.73;;
43429;SDS011;29028;43.234;27.896;2022-08-07T04:17:41;13.48;;;12.10;;
43429;SDS011;29028;43.234;27.896;2022-08-07T04:18:02;13.95;;;12.48;;
43429;SDS011;29028;43.234;27.896;2022-08-07T04:18:25;14.13;;;12.63;;
43429;SDS011;29028;43.234;27.896;2022-08-07T04:18:46;14.27;;;12.77;;
43429;SDS011;29028;43.234;27.896;2022-08-07T04:19:07;14.25;;;12.68;;
43429;SDS011;29028;43.234;27.896;2022-08-07T04:19:28;14.88;;;12.85;;
43429;SDS011;29028;43.234;27.896;2022-08-07T04:19:50;14.90;;;12.57;;
43429;SDS011;29028;43.234;27.896;2022-08-07T04:20:12;14.02;;;11.98;;
43429;SDS011;29028;43.234;27.896;2022-08-07T04:20:33;14.30;;;12.35;;
43429;SDS011;29028;43.234;27.896;2022-08-07T04:20:54;13.73;;;12.32;;
43429;SDS011;29028;43.234;27.896;2022-08-07T04:21:15;14.10;;;11.90;;
43429;SDS011;29028;43.234;27.896;2022-08-07T04:21:37;14.35;;;12.20;;
43429;SDS011;29028;43.234;27.896;2022-08-07T04:21:59;13.48;;;11.98;;
43429;SDS011;29028;43.234;27.896;2022-08-07T04:22:21;14.60;;;12.18;;
43429;SDS011;29028;43.234;27.896;2022-08-07T04:22:43;14.45;;;12.20;;
43429;SDS011;29028;43.234;27.896;2022-08-07T04:23:04;13.55;;;12.15;;
43429;SDS011;29028;43.234;27.896;2022-08-07T04:23:27;14.35;;;12.02;;
43429;SDS011;29028;43.234;27.896;2022-08-07T04:23:49;14.15;;;12.38;;
43429;SDS011;29028;43.234;27.896;2022-08-07T04:24:10;13.73;;;12.32;;
43429;SDS011;29028;43.234;27.896;2022-08-07T04:24:32;14.25;;;11.90;;
43429;SDS011;29028;43.234;27.896;2022-08-07T04:24:55;15.63;;;12.63;;
43429;SDS011;29028;43.234;27.896;2022-08-07T04:25:18;14.37;;;12.53;;
43429;SDS011;29028;43.234;27.896;2022-08-07T04:25:40;14.27;;;12.15;;
43429;SDS011;29028;43.234;27.896;2022-08-07T04:26:02;14.48;;;12.07;;
43429;SDS011;29028;43.234;27.896;2022-08-07T04:26:25;14.77;;;12.15;;
43429;SDS011;29028;43.234;27.896;2022-08-07T04:26:47;14.80;;;12.18;;
43429;SDS011;29028;43.234;27.896;2022-08-07T04:27:08;13.60;;;11.77;;
43429;SDS011;29028;43.234;27.896;2022-08-07T04:27:30;13.93;;;11.85;;
43429;SDS011;29028;43.234;27.896;2022-08-07T04:27:51;14.00;;;12.13;;
43429;SDS011;29028;43.234;27.896;2022-08-07T04:28:13;12.98;;;11.32;;
43429;SDS011;29028;43.234;27.896;2022-08-07T04:28:34;12.70;;;11.30;;
43429;SDS011;29028;43.234;27.896;2022-08-07T04:28:55;13.48;;;11.65;;
43429;SDS011;29028;43.234;27.896;2022-08-07T04:29:16;13.10;;;11.73;;
43429;SDS011;29028;43.234;27.896;2022-08-07T04:29:38;13.75;;;11.90;;
43429;SDS011;29028;43.234;27.896;2022-08-07T04:29:59;13.93;;;12.05;;
43429;SDS011;29028;43.234;27.896;2022-08-07T04:30:20;13.00;;;11.43;;
43429;SDS011;29028;43.234;27.896;2022-08-07T04:30:42;13.70;;;11.65;;
43429;SDS011;29028;43.234;27.896;2022-08-07T04:31:08;13.68;;;11.48;;
43429;SDS011;29028;43.234;27.896;2022-08-07T04:31:30;14.50;;;11.55;;
43429;SDS011;29028;43.234;27.896;2022-08-07T04:31:52;12.88;;;11.55;;
43429;SDS011;29028;43.234;27.896;2022-08-07T04:32:14;13.98;;;12.05;;
43429;SDS011;29028;43.234;27.896;2022-08-07T04:32:36;12.70;;;11.32;;
43429;SDS011;29028;43.234;27.896;2022-08-07T04:32:58;14.10;;;11.65;;
43429;SDS011;29028;43.234;27.896;2022-08-07T04:33:20;14.57;;;11.90;;
43429;SDS011;29028;43.234;27.896;2022-08-07T04:33:44;13.93;;;11.18;;
43429;SDS011;29028;43.234;27.896;2022-08-07T04:34:06;12.93;;;11.32;;
43429;SDS011;29028;43.234;27.896;2022-08-07T04:34:28;13.85;;;11.75;;
43429;SDS011;29028;43.234;27.896;2022-08-07T04:34:50;12.27;;;10.95;;
43429;SDS011;29028;43.234;27.896;2022-08-07T04:35:13;11.77;;;10.57;;
43429;SDS011;29028;43.234;27.896;2022-08-07T04:35:34;12.57;;;11.27;;
43429;SDS011;29028;43.234;27.896;2022-08-07T04:35:56;12.00;;;10.80;;
43429;SDS011;29028;43.234;27.896;2022-08-07T04:36:18;12.55;;;10.95;;
43429;SDS011;29028;43.234;27.896;2022-08-07T04:36:40;12.85;;;11.10;;
43429;SDS011;29028;43.234;27.896;2022-08-07T04:37:02;12.25;;;10.95;;
43429;SDS011;29028;43.234;27.896;2022-08-07T04:37:24;11.63;;;10.43;;
43429;SDS011;29028;43.234;27.896;2022-08-07T04:37:45;11.73;;;10.50;;
43429;SDS011;29028;43.234;27.896;2022-08-07T04:38:07;12.52;;;10.65;;
43429;SDS011;29028;43.234;27.896;2022-08-07T04:38:30;12.68;;;10.90;;
43429;SDS011;29028;43.234;27.896;2022-08-07T04:38:51;13.27;;;11.38;;
43429;SDS011;29028;43.234;27.896;2022-08-07T04:39:12;12.65;;;11.32;;
43429;SDS011;29028;43.234;27.896;2022-08-07T04:39:34;12.35;;;11.05;;
43429;SDS011;29028;43.234;27.896;2022-08-07T04:39:55;14.95;;;11.40;;
43429;SDS011;29028;43.234;27.896;2022-08-07T04:40:16;14.35;;;11.38;;
43429;SDS011;29028;43.234;27.896;2022-08-07T04:40:38;12.20;;;10.90;;
43429;SDS011;29028;43.234;27.896;2022-08-07T04:41:01;12.38;;;10.88;;
43429;SDS011;29028;43.234;27.896;2022-08-07T04:41:23;12.95;;;11.00;;
43429;SDS011;29028;43.234;27.896;2022-08-07T04:41:44;13.23;;;11.10;;
43429;SDS011;29028;43.234;27.896;2022-08-07T04:42:05;12.50;;;11.20;;
43429;SDS011;29028;43.234;27.896;2022-08-07T04:42:26;12.35;;;10.68;;
43429;SDS011;29028;43.234;27.896;2022-08-07T04:42:50;12.77;;;10.75;;
43429;SDS011;29028;43.234;27.896;2022-08-07T04:43:12;12.82;;;10.60;;
43429;SDS011;29028;43.234;27.896;2022-08-07T04:43:37;12.35;;;11.05;;
43429;SDS011;29028;43.234;27.896;2022-08-07T04:43:59;12.20;;;10.90;;
43429;SDS011;29028;43.234;27.896;2022-08-07T04:44:22;11.50;;;10.40;;
43429;SDS011;29028;43.234;27.896;2022-08-07T04:44:43;11.65;;;10.45;;
43429;SDS011;29028;43.234;27.896;2022-08-07T04:45:04;12.35;;;10.63;;
43429;SDS011;29028;43.234;27.896;2022-08-07T04:45:28;12.23;;;10.45;;
43429;SDS011;29028;43.234;27.896;2022-08-07T04:46:01;11.93;;;10.38;;
43429;SDS011;29028;43.234;27.896;2022-08-07T04:46:29;11.80;;;10.60;;
43429;SDS011;29028;43.234;27.896;2022-08-07T04:46:58;12.65;;;10.73;;
43429;SDS011;29028;43.234;27.896;2022-08-07T04:47:25;10.85;;;9.70;;
43429;SDS011;29028;43.234;27.896;2022-08-07T04:47:54;11.65;;;10.15;;
43429;SDS011;29028;43.234;27.896;2022-08-07T04:48:23;11.88;;;9.98;;
43429;SDS011;29028;43.234;27.896;2022-08-07T04:48:56;11.60;;;10.25;;
43429;SDS011;29028;43.234;27.896;2022-08-07T04:49:23;11.15;;;10.02;;
43429;SDS011;29028;43.234;27.896;2022-08-07T04:49:51;10.90;;;9.80;;
43429;SDS011;29028;43.234;27.896;2022-08-07T04:50:23;11.35;;;9.70;;
43429;SDS011;29028;43.234;27.896;2022-08-07T04:50:52;10.70;;;9.57;;
43429;SDS011;29028;43.234;27.896;2022-08-07T04:51:21;10.55;;;9.38;;
43429;SDS011;29028;43.234;27.896;2022-08-07T04:51:52;11.50;;;9.63;;
43429;SDS011;29028;43.234;27.896;2022-08-07T04:52:23;11.32;;;9.38;;
43429;SDS011;29028;43.234;27.896;2022-08-07T04:52:55;10.68;;;9.40;;
43429;SDS011;29028;43.234;27.896;2022-08-07T04:53:25;11.90;;;9.40;;
43429;SDS011;29028;43.234;27.896;2022-08-07T04:53:55;10.98;;;9.80;;
43429;SDS011;29028;43.234;27.896;2022-08-07T04:54:21;10.48;;;9.38;;
43429;SDS011;29028;43.234;27.896;2022-08-07T04:54:51;10.60;;;9.50;;
43429;SDS011;29028;43.234;27.896;2022-08-07T04:55:21;10.60;;;9.50;;
43429;SDS011;29028;43.234;27.896;2022-08-07T04:55:47;10.77;;;9.55;;
43429;SDS011;29028;43.234;27.896;2022-08-07T04:56:14;10.25;;;9.15;;
43429;SDS011;29028;43.234;27.896;2022-08-07T04:56:43;11.35;;;9.68;;
43429;SDS011;29028;43.234;27.896;2022-08-07T04:57:10;10.70;;;9.27;;
43429;SDS011;29028;43.234;27.896;2022-08-07T04:57:48;10.20;;;9.20;;
43429;SDS011;29028;43.234;27.896;2022-08-07T04:58:16;10.27;;;9.27;;
43429;SDS011;29028;43.234;27.896;2022-08-07T04:58:45;10.52;;;9.45;;
43429;SDS011;29028;43.234;27.896;2022-08-07T04:59:12;9.93;;;8.85;;
43429;SDS011;29028;43.234;27.896;2022-08-07T04:59:39;10.27;;;9.18;;
43429;SDS011;29028;43.234;27.896;2022-08-07T05:00:07;10.32;;;9.32;;
43429;SDS011;29028;43.234;27.896;2022-08-07T05:00:34;10.25;;;9.25;;
43429;SDS011;29028;43.234;27.896;2022-08-07T05:01:02;9.82;;;8.82;;
43429;SDS011;29028;43.234;27.896;2022-08-07T05:01:30;10.98;;;9.15;;
43429;SDS011;29028;43.234;27.896;2022-08-07T05:02:01;10.05;;;9.00;;
43429;SDS011;29028;43.234;27.896;2022-08-07T05:02:29;9.55;;;8.52;;
43429;SDS011;29028;43.234;27.896;2022-08-07T05:02:53;10.43;;;9.07;;
43429;SDS011;29028;43.234;27.896;2022-08-07T05:03:22;9.93;;;8.93;;
43429;SDS011;29028;43.234;27.896;2022-08-07T05:03:48;9.38;;;8.48;;
43429;SDS011;29028;43.234;27.896;2022-08-07T05:04:17;9.65;;;8.65;;
43429;SDS011;29028;43.234;27.896;2022-08-07T05:04:45;9.70;;;8.70;;
43429;SDS011;29028;43.234;27.896;2022-08-07T05:05:16;10.07;;;8.75;;
43429;SDS011;29028;43.234;27.896;2022-08-07T05:05:42;9.48;;;8.57;;
43429;SDS011;29028;43.234;27.896;2022-08-07T05:06:08;9.73;;;8.73;;
43429;SDS011;29028;43.234;27.896;2022-08-07T05:06:34;9.48;;;8.48;;
43429;SDS011;29028;43.234;27.896;2022-08-07T05:07:00;10.88;;;8.50;;
43429;SDS011;29028;43.234;27.896;2022-08-07T05:07:29;9.60;;;8.70;;
43429;SDS011;29028;43.234;27.896;2022-08-07T05:07:57;9.20;;;8.30;;
43429;SDS011;29028;43.234;27.896;2022-08-07T05:08:25;10.15;;;8.30;;
43429;SDS011;29028;43.234;27.896;2022-08-07T05:08:54;11.32;;;8.75;;
43429;SDS011;29028;43.234;27.896;2022-08-07T05:09:23;9.02;;;8.13;;
43429;SDS011;29028;43.234;27.896;2022-08-07T05:09:50;10.80;;;8.43;;
43429;SDS011;29028;43.234;27.896;2022-08-07T05:10:18;9.23;;;8.23;;
43429;SDS011;29028;43.234;27.896;2022-08-07T05:10:44;9.07;;;8.18;;
43429;SDS011;29028;43.234;27.896;2022-08-07T05:11:09;9.25;;;8.25;;
43429;SDS011;29028;43.234;27.896;2022-08-07T05:11:34;10.32;;;8.80;;
43429;SDS011;29028;43.234;27.896;2022-08-07T05:12:01;12.18;;;10.25;;
43429;SDS011;29028;43.234;27.896;2022-08-07T05:12:29;12.73;;;11.00;;
43429;SDS011;29028;43.234;27.896;2022-08-07T05:12:57;9.65;;;8.65;;
43429;SDS011;29028;43.234;27.896;2022-08-07T05:13:26;9.25;;;8.20;;
43429;SDS011;29028;43.234;27.896;2022-08-07T05:13:57;9.73;;;8.18;;
43429;SDS011;29028;43.234;27.896;2022-08-07T05:14:22;9.63;;;8.43;;
43429;SDS011;29028;43.234;27.896;2022-08-07T05:14:49;9.98;;;8.25;;
43429;SDS011;29028;43.234;27.896;2022-08-07T05:15:19;9.73;;;8.48;;
43429;SDS011;29028;43.234;27.896;2022-08-07T05:15:44;9.98;;;8.82;;
43429;SDS011;29028;43.234;27.896;2022-08-07T05:16:10;10.23;;;8.85;;
43429;SDS011;29028;43.234;27.896;2022-08-07T05:16:34;9.50;;;8.60;;
43429;SDS011;29028;43.234;27.896;2022-08-07T05:17:01;9.35;;;8.38;;
43429;SDS011;29028;43.234;27.896;2022-08-07T05:17:24;9.50;;;8.15;;
43429;SDS011;29028;43.234;27.896;2022-08-07T05:17:48;9.13;;;8.20;;
43429;SDS011;29028;43.234;27.896;2022-08-07T05:18:13;8.93;;;8.05;;
43429;SDS011;29028;43.234;27.896;2022-08-07T05:18:44;9.85;;;8.57;;
43429;SDS011;29028;43.234;27.896;2022-08-07T05:19:09;9.45;;;8.07;;
43429;SDS011;29028;43.234;27.896;2022-08-07T05:19:34;11.55;;;8.13;;
43429;SDS011;29028;43.234;27.896;2022-08-07T05:20:00;9.00;;;8.10;;
43429;SDS011;29028;43.234;27.896;2022-08-07T05:20:23;9.30;;;8.18;;
43429;SDS011;29028;43.234;27.896;2022-08-07T05:20:52;8.98;;;8.05;;
43429;SDS011;29028;43.234;27.896;2022-08-07T05:21:16;9.07;;;8.18;;
43429;SDS011;29028;43.234;27.896;2022-08-07T05:21:42;9.43;;;8.05;;
43429;SDS011;29028;43.234;27.896;2022-08-07T05:22:07;9.57;;;8.20;;
43429;SDS011;29028;43.234;27.896;2022-08-07T05:22:30;8.88;;;7.97;;
43429;SDS011;29028;43.234;27.896;2022-08-07T05:22:55;9.25;;;8.10;;
43429;SDS011;29028;43.234;27.896;2022-08-07T05:23:21;11.30;;;9.23;;
43429;SDS011;29028;43.234;27.896;2022-08-07T05:23:52;10.60;;;8.90;;
43429;SDS011;29028;43.234;27.896;2022-08-07T05:24:18;9.55;;;8.40;;
43429;SDS011;29028;43.234;27.896;2022-08-07T05:24:41;9.35;;;8.45;;
43429;SDS011;29028;43.234;27.896;2022-08-07T05:25:05;9.20;;;8.27;;
43429;SDS011;29028;43.234;27.896;2022-08-07T05:25:28;10.45;;;8.35;;
43429;SDS011;29028;43.234;27.896;2022-08-07T05:25:52;9.90;;;8.57;;
43429;SDS011;29028;43.234;27.896;2022-08-07T05:26:15;8.95;;;7.93;;
43429;SDS011;29028;43.234;27.896;2022-08-07T05:26:39;9.32;;;8.43;;
43429;SDS011;29028;43.234;27.896;2022-08-07T05:27:02;9.40;;;8.40;;
43429;SDS011;29028;43.234;27.896;2022-08-07T05:27:26;10.40;;;8.25;;
43429;SDS011;29028;43.234;27.896;2022-08-07T05:27:48;10.52;;;8.32;;
43429;SDS011;29028;43.234;27.896;2022-08-07T05:28:10;10.82;;;8.25;;
43429;SDS011;29028;43.234;27.896;2022-08-07T05:28:35;9.13;;;8.13;;
43429;SDS011;29028;43.234;27.896;2022-08-07T05:28:58;9.10;;;8.20;;
43429;SDS011;29028;43.234;27.896;2022-08-07T05:29:21;9.40;;;8.27;;
43429;SDS011;29028;43.234;27.896;2022-08-07T05:29:44;9.82;;;8.00;;
43429;SDS011;29028;43.234;27.896;2022-08-07T05:30:08;10.15;;;8.18;;
43429;SDS011;29028;43.234;27.896;2022-08-07T05:30:30;9.50;;;8.05;;
43429;SDS011;29028;43.234;27.896;2022-08-07T05:30:53;9.77;;;8.30;;
43429;SDS011;29028;43.234;27.896;2022-08-07T05:31:17;9.50;;;8.00;;
43429;SDS011;29028;43.234;27.896;2022-08-07T05:31:40;8.95;;;8.02;;
43429;SDS011;29028;43.234;27.896;2022-08-07T05:32:05;8.80;;;7.90;;
43429;SDS011;29028;43.234;27.896;2022-08-07T05:32:27;9.02;;;7.70;;
43429;SDS011;29028;43.234;27.896;2022-08-07T05:32:49;9.30;;;7.78;;
43429;SDS011;29028;43.234;27.896;2022-08-07T05:33:12;8.90;;;7.97;;
43429;SDS011;29028;43.234;27.896;2022-08-07T05:33:35;9.38;;;7.90;;
43429;SDS011;29028;43.234;27.896;2022-08-07T05:33:58;11.88;;;8.35;;
43429;SDS011;29028;43.234;27.896;2022-08-07T05:34:21;10.35;;;8.07;;
43429;SDS011;29028;43.234;27.896;2022-08-07T05:34:44;9.07;;;8.18;;
43429;SDS011;29028;43.234;27.896;2022-08-07T05:35:08;8.68;;;7.78;;
43429;SDS011;29028;43.234;27.896;2022-08-07T05:35:31;8.70;;;7.80;;
43429;SDS011;29028;43.234;27.896;2022-08-07T05:35:53;8.98;;;7.93;;
43429;SDS011;29028;43.234;27.896;2022-08-07T05:36:16;9.10;;;8.20;;
43429;SDS011;29028;43.234;27.896;2022-08-07T05:36:41;8.77;;;7.88;;
43429;SDS011;29028;43.234;27.896;2022-08-07T05:37:03;9.57;;;8.30;;
43429;SDS011;29028;43.234;27.896;2022-08-07T05:37:25;8.82;;;7.90;;
43429;SDS011;29028;43.234;27.896;2022-08-07T05:37:47;9.80;;;8.13;;
43429;SDS011;29028;43.234;27.896;2022-08-07T05:38:09;9.65;;;7.95;;
43429;SDS011;29028;43.234;27.896;2022-08-07T05:38:31;8.77;;;7.88;;
43429;SDS011;29028;43.234;27.896;2022-08-07T05:38:54;9.10;;;7.97;;
43429;SDS011;29028;43.234;27.896;2022-08-07T05:39:18;8.90;;;7.85;;
43429;SDS011;29028;43.234;27.896;2022-08-07T05:39:40;8.95;;;7.72;;
43429;SDS011;29028;43.234;27.896;2022-08-07T05:40:02;8.05;;;7.25;;
43429;SDS011;29028;43.234;27.896;2022-08-07T05:40:25;8.50;;;7.57;;
43429;SDS011;29028;43.234;27.896;2022-08-07T05:40:46;9.18;;;7.68;;
43429;SDS011;29028;43.234;27.896;2022-08-07T05:41:09;8.90;;;7.80;;
43429;SDS011;29028;43.234;27.896;2022-08-07T05:41:30;9.13;;;7.60;;
43429;SDS011;29028;43.234;27.896;2022-08-07T05:41:53;9.55;;;7.80;;
43429;SDS011;29028;43.234;27.896;2022-08-07T05:42:14;9.82;;;7.72;;
43429;SDS011;29028;43.234;27.896;2022-08-07T05:42:36;9.52;;;7.90;;
43429;SDS011;29028;43.234;27.896;2022-08-07T05:42:57;10.02;;;8.20;;
43429;SDS011;29028;43.234;27.896;2022-08-07T05:43:20;9.95;;;7.82;;
43429;SDS011;29028;43.234;27.896;2022-08-07T05:43:42;9.40;;;7.57;;
43429;SDS011;29028;43.234;27.896;2022-08-07T05:44:06;9.27;;;7.90;;
43429;SDS011;29028;43.234;27.896;2022-08-07T05:44:27;8.48;;;7.57;;
43429;SDS011;29028;43.234;27.896;2022-08-07T05:44:51;8.68;;;7.78;;
43429;SDS011;29028;43.234;27.896;2022-08-07T05:45:13;7.85;;;7.05;;
43429;SDS011;29028;43.234;27.896;2022-08-07T05:45:36;8.45;;;7.40;;
43429;SDS011;29028;43.234;27.896;2022-08-07T05:45:57;8.52;;;7.63;;
43429;SDS011;29028;43.234;27.896;2022-08-07T05:46:21;8.90;;;8.00;;
43429;SDS011;29028;43.234;27.896;2022-08-07T05:46:43;9.15;;;8.15;;
43429;SDS011;29028;43.234;27.896;2022-08-07T05:47:07;9.77;;;8.00;;
43429;SDS011;29028;43.234;27.896;2022-08-07T05:47:28;9.45;;;7.38;;
43429;SDS011;29028;43.234;27.896;2022-08-07T05:47:52;9.27;;;7.63;;
43429;SDS011;29028;43.234;27.896;2022-08-07T05:48:13;9.63;;;7.75;;
43429;SDS011;29028;43.234;27.896;2022-08-07T05:48:35;9.50;;;7.60;;
43429;SDS011;29028;43.234;27.896;2022-08-07T05:48:57;9.23;;;7.50;;
43429;SDS011;29028;43.234;27.896;2022-08-07T05:49:20;8.75;;;7.78;;
43429;SDS011;29028;43.234;27.896;2022-08-07T05:49:42;8.68;;;7.53;;
43429;SDS011;29028;43.234;27.896;2022-08-07T05:50:04;10.77;;;7.72;;
43429;SDS011;29028;43.234;27.896;2022-08-07T05:50:26;10.40;;;7.60;;
43429;SDS011;29028;43.234;27.896;2022-08-07T05:50:50;10.50;;;7.88;;
43429;SDS011;29028;43.234;27.896;2022-08-07T05:51:12;8.93;;;7.88;;
43429;SDS011;29028;43.234;27.896;2022-08-07T05:51:34;8.80;;;7.90;;
43429;SDS011;29028;43.234;27.896;2022-08-07T05:51:55;9.15;;;7.50;;
43429;SDS011;29028;43.234;27.896;2022-08-07T05:52:18;8.93;;;7.70;;
43429;SDS011;29028;43.234;27.896;2022-08-07T05:52:39;9.00;;;7.90;;
43429;SDS011;29028;43.234;27.896;2022-08-07T05:53:00;9.80;;;7.70;;
43429;SDS011;29028;43.234;27.896;2022-08-07T05:53:21;9.07;;;7.80;;
43429;SDS011;29028;43.234;27.896;2022-08-07T05:53:42;9.02;;;7.63;;
43429;SDS011;29028;43.234;27.896;2022-08-07T05:54:04;8.85;;;7.80;;
43429;SDS011;29028;43.234;27.896;2022-08-07T05:54:25;9.23;;;8.00;;
43429;SDS011;29028;43.234;27.896;2022-08-07T05:54:46;10.07;;;7.95;;
43429;SDS011;29028;43.234;27.896;2022-08-07T05:55:07;9.02;;;7.72;;
43429;SDS011;29028;43.234;27.896;2022-08-07T05:55:30;9.32;;;7.93;;
43429;SDS011;29028;43.234;27.896;2022-08-07T05:55:54;9.00;;;7.63;;
43429;SDS011;29028;43.234;27.896;2022-08-07T05:56:18;10.07;;;7.80;;
43429;SDS011;29028;43.234;27.896;2022-08-07T05:56:40;8.85;;;7.95;;
43429;SDS011;29028;43.234;27.896;2022-08-07T05:57:02;9.50;;;7.60;;
43429;SDS011;29028;43.234;27.896;2022-08-07T05:57:26;9.52;;;7.97;;
43429;SDS011;29028;43.234;27.896;2022-08-07T05:57:49;10.23;;;7.75;;
43429;SDS011;29028;43.234;27.896;2022-08-07T05:58:10;10.27;;;7.65;;
43429;SDS011;29028;43.234;27.896;2022-08-07T05:58:33;10.57;;;7.88;;
43429;SDS011;29028;43.234;27.896;2022-08-07T05:58:56;8.95;;;7.93;;
43429;SDS011;29028;43.234;27.896;2022-08-07T05:59:20;8.70;;;7.80;;
43429;SDS011;29028;43.234;27.896;2022-08-07T05:59:42;10.00;;;7.90;;
43429;SDS011;29028;43.234;27.896;2022-08-07T06:00:06;9.25;;;7.70;;
43429;SDS011;29028;43.234;27.896;2022-08-07T06:00:30;9.90;;;7.80;;
43429;SDS011;29028;43.234;27.896;2022-08-07T06:00:54;8.82;;;7.88;;
43429;SDS011;29028;43.234;27.896;2022-08-07T06:01:17;9.18;;;7.80;;
43429;SDS011;29028;43.234;27.896;2022-08-07T06:01:41;8.98;;;7.43;;
43429;SDS011;29028;43.234;27.896;2022-08-07T06:02:04;9.02;;;7.75;;
43429;SDS011;29028;43.234;27.896;2022-08-07T06:02:30;8.57;;;7.60;;
43429;SDS011;29028;43.234;27.896;2022-08-07T06:02:54;8.52;;;7.55;;
43429;SDS011;29028;43.234;27.896;2022-08-07T06:03:18;8.38;;;7.45;;
43429;SDS011;29028;43.234;27.896;2022-08-07T06:03:42;8.68;;;7.70;;
43429;SDS011;29028;43.234;27.896;2022-08-07T06:04:09;10.00;;;7.65;;
43429;SDS011;29028;43.234;27.896;2022-08-07T06:04:31;9.13;;;7.88;;
43429;SDS011;29028;43.234;27.896;2022-08-07T06:04:56;8.80;;;7.90;;
43429;SDS011;29028;43.234;27.896;2022-08-07T06:05:22;10.55;;;8.30;;
43429;SDS011;29028;43.234;27.896;2022-08-07T06:05:47;9.27;;;7.82;;
43429;SDS011;29028;43.234;27.896;2022-08-07T06:06:09;9.85;;;8.18;;
43429;SDS011;29028;43.234;27.896;2022-08-07T06:06:31;9.27;;;7.90;;
43429;SDS011;29028;43.234;27.896;2022-08-07T06:06:53;10.30;;;8.05;;
43429;SDS011;29028;43.234;27.896;2022-08-07T06:07:16;8.70;;;7.80;;
43429;SDS011;29028;43.234;27.896;2022-08-07T06:07:38;9.48;;;8.00;;
43429;SDS011;29028;43.234;27.896;2022-08-07T06:07:59;8.95;;;7.78;;
43429;SDS011;29028;43.234;27.896;2022-08-07T06:08:21;9.27;;;7.78;;
43429;SDS011;29028;43.234;27.896;2022-08-07T06:08:44;8.85;;;7.30;;
43429;SDS011;29028;43.234;27.896;2022-08-07T06:09:06;9.10;;;7.85;;
43429;SDS011;29028;43.234;27.896;2022-08-07T06:09:28;9.75;;;7.82;;
43429;SDS011;29028;43.234;27.896;2022-08-07T06:09:50;10.65;;;8.07;;
43429;SDS011;29028;43.234;27.896;2022-08-07T06:10:12;9.90;;;8.48;;
43429;SDS011;29028;43.234;27.896;2022-08-07T06:10:33;9.80;;;8.70;;
43429;SDS011;29028;43.234;27.896;2022-08-07T06:10:55;9.00;;;8.00;;
43429;SDS011;29028;43.234;27.896;2022-08-07T06:11:17;9.45;;;8.35;;
43429;SDS011;29028;43.234;27.896;2022-08-07T06:11:38;9.18;;;7.95;;
43429;SDS011;29028;43.234;27.896;2022-08-07T06:12:00;9.15;;;7.80;;
43429;SDS011;29028;43.234;27.896;2022-08-07T06:12:21;10.90;;;8.05;;
43429;SDS011;29028;43.234;27.896;2022-08-07T06:12:43;11.15;;;8.00;;
43429;SDS011;29028;43.234;27.896;2022-08-07T06:13:04;9.50;;;7.72;;
43429;SDS011;29028;43.234;27.896;2022-08-07T06:13:26;10.63;;;8.70;;
43429;SDS011;29028;43.234;27.896;2022-08-07T06:13:47;10.00;;;8.73;;
43429;SDS011;29028;43.234;27.896;2022-08-07T06:14:09;8.95;;;7.72;;
43429;SDS011;29028;43.234;27.896;2022-08-07T06:14:31;8.88;;;7.85;;
43429;SDS011;29028;43.234;27.896;2022-08-07T06:14:52;9.15;;;8.20;;
43429;SDS011;29028;43.234;27.896;2022-08-07T06:15:14;9.40;;;8.50;;
43429;SDS011;29028;43.234;27.896;2022-08-07T06:15:38;9.20;;;8.20;;
43429;SDS011;29028;43.234;27.896;2022-08-07T06:16:00;9.73;;;8.23;;
43429;SDS011;29028;43.234;27.896;2022-08-07T06:16:23;8.80;;;7.90;;
43429;SDS011;29028;43.234;27.896;2022-08-07T06:16:51;10.43;;;7.75;;
43429;SDS011;29028;43.234;27.896;2022-08-07T06:17:13;11.07;;;7.75;;
43429;SDS011;29028;43.234;27.896;2022-08-07T06:17:36;10.93;;;8.02;;
43429;SDS011;29028;43.234;27.896;2022-08-07T06:17:57;8.85;;;7.55;;
43429;SDS011;29028;43.234;27.896;2022-08-07T06:18:18;10.45;;;7.75;;
43429;SDS011;29028;43.234;27.896;2022-08-07T06:18:41;11.60;;;8.18;;
43429;SDS011;29028;43.234;27.896;2022-08-07T06:19:03;9.10;;;8.10;;
43429;SDS011;29028;43.234;27.896;2022-08-07T06:19:25;8.60;;;7.70;;
43429;SDS011;29028;43.234;27.896;2022-08-07T06:19:47;8.90;;;7.70;;